Latest Weather Observations for Oodnadatta

IDS60801

Issued at 7:01 pm CDT Thursday 19 January 2017 (issued every 30 minutes, with the page automatically refreshed every 10 minutes)

About weather observations | Map of weather stations | Latest weather observations for SA | Other Formats
Station Details ID: 017043 Name: OODNADATTA AIRPORT Lat: -27.56 Lon: 135.45 Height: 116.5 m
Data from the previous 72 hours. | See also: Recent months at Oodnadatta
Date/Time
CDT
Temp
°C
App
Temp
°C
Dew
Point
°C
Rel
Hum
%
Delta-T
°C
Wind Press
QNH
hPa
Press
MSL
hPa
Rain since
9am
mm
Dir  Spd
km/h
Gust
km/h
Spd
kts
Gust
kts
19/06:30pm 41.4 38.2 18.6 26 15.3 NNW 33 43 18 23 998.2 997.4 0.0
19/06:00pm 41.3 37.7 18.5 26 15.3 NNW 35 44 19 24 998.4 997.6 0.0
19/05:47pm 42.1 39.5 18.6 25 15.7 NNW 30 50 16 27 998.4 997.6 0.0
19/05:30pm 41.3 39.0 18.5 26 15.3 NNW 28 41 15 22 998.8 998.0 0.0
19/05:00pm 41.4 39.4 19.2 27 15.0 NNW 28 43 15 23 999.4 998.6 0.0
19/04:30pm 42.4 39.8 19.5 27 15.6 NNW 32 41 17 22 999.9 999.1 0.0
19/04:08pm 41.7 39.9 19.5 28 15.0 NW 28 46 15 25 1000.4 999.6 0.0
19/04:00pm 41.1 38.9 19.5 28 14.6 NW 30 41 16 22 1000.5 999.7 0.0
19/03:32pm 40.5 38.7 19.5 29 14.2 NNW 28 46 15 25 1001.0 1000.2 0.0
19/03:30pm 40.5 39.0 19.5 29 14.2 NNW 26 41 14 22 1001.1 1000.3 0.0
19/03:00pm 41.2 39.8 19.6 28 14.7 NNW 26 41 14 22 1001.8 1000.9 0.0
19/02:30pm 41.2 39.4 19.6 28 14.7 NNW 28 44 15 24 1002.4 1001.5 0.0
19/02:00pm 41.2 38.6 19.6 28 14.6 NNW 32 44 17 24 1002.9 1002.0 0.0
19/01:30pm 40.6 37.9 19.6 29 14.2 NNW 33 44 18 24 1003.3 1002.4 0.0
19/01:00pm 40.1 38.2 20.2 31 13.5 NNW 30 52 16 28 1003.8 1002.9 0.0
19/12:30pm 38.5 37.4 20.3 34 12.4 NW 26 39 14 21 1004.5 1003.7 0.0
19/12:00pm 38.5 37.3 20.8 36 12.1 NNW 28 43 15 23 1005.0 1004.2 0.0
19/11:30am 37.2 36.8 20.9 38 11.1 NNW 24 32 13 17 1005.4 1004.6 0.0
19/11:00am 37.7 37.2 21.4 39 11.2 NW 26 37 14 20 1005.6 1004.8 0.0
19/10:30am 37.3 36.6 21.8 40 10.7 NNW 28 37 15 20 1005.6 1004.8 0.0
19/10:00am 36.1 35.6 21.5 42 10.0 NNW 26 39 14 21 1005.6 1004.8 0.0
19/09:30am 35.6 34.7 21.5 44 9.7 NNW 28 37 15 20 1005.8 1005.0 0.0
19/09:00am 35.0 34.2 21.6 45 9.2 NNW 28 37 15 20 1005.8 1005.0 0.0
19/08:30am 34.7 33.8 21.4 46 9.1 NNW 28 37 15 20 1005.7 1004.9 0.0
19/08:00am 34.2 34.4 21.3 47 8.8 N 22 30 12 16 1005.5 1004.7 0.0
19/07:30am 33.3 34.2 20.8 48 8.4 N 17 22 9 12 1005.3 1004.5 0.0
19/07:00am 33.0 34.3 20.9 49 8.2 N 15 19 8 10 1005.1 1004.3 0.0
19/06:30am 33.1 33.7 20.3 47 8.6 N 17 24 9 13 1004.6 1003.8 0.0
19/06:00am 33.4 34.4 20.2 46 8.8 N 15 20 8 11 1004.4 1003.6 0.0
19/05:30am 33.7 33.9 20.1 44 9.1 N 19 26 10 14 1004.3 1003.5 0.0
19/05:00am 34.1 33.5 19.7 42 9.6 N 22 28 12 15 1004.3 1003.5 0.0
19/04:30am 34.5 33.7 19.3 40 10.1 N 22 32 12 17 1004.2 1003.3 0.0
19/04:00am 34.6 34.1 19.0 39 10.3 N 20 28 11 15 1004.2 1003.3 0.0
19/03:30am 35.0 34.8 18.6 38 10.8 NNE 17 20 9 11 1004.1 1003.2 0.0
19/03:00am 35.4 35.4 18.9 37 10.9 N 17 22 9 12 1004.4 1003.6 0.0
19/02:30am 35.6 35.1 19.1 38 11.0 NNE 20 28 11 15 1004.4 1003.6 0.0
19/02:00am 35.9 35.3 18.9 36 11.2 NNE 20 26 11 14 1004.7 1003.9 0.0
19/01:30am 36.0 35.8 18.6 36 11.5 NNE 17 22 9 12 1004.9 1004.1 0.0
19/01:00am 36.5 36.0 18.6 35 11.8 NNE 19 24 10 13 1004.9 1004.1 0.0
19/12:30am 36.9 36.1 18.4 33 12.2 NNE 20 26 11 14 1005.0 1004.2 0.0
19/12:00am 37.4 36.2 18.4 32 12.6 NNE 22 28 12 15 1005.1 1004.3 0.0
 
Date/Time
CDT
Temp
°C
App
Temp
°C
Dew
Point
°C
Rel
Hum
%
Delta-T
°C
Wind Press
QNH
hPa
Press
MSL
hPa
Rain since
9am
mm
Dir  Spd
km/h
Gust
km/h
Spd
kts
Gust
kts
18/11:30pm 37.7 36.6 18.7 33 12.6 NNE 22 28 12 15 1005.3 1004.5 0.0
18/11:00pm 38.0 36.8 18.4 31 13.0 NNE 22 32 12 17 1005.2 1004.4 0.0
18/10:30pm 38.3 36.9 18.7 31 13.0 NNE 24 32 13 17 1004.7 1003.9 0.0
18/10:00pm 38.8 38.6 17.5 28 13.9 N 15 24 8 13 1004.5 1003.7 0.0
18/09:30pm 39.2 39.1 17.9 28 14.1 N 15 22 8 12 1004.4 1003.6 0.0
18/09:00pm 39.5 38.7 18.1 28 14.2 N 19 24 10 13 1004.2 1003.3 0.0
18/08:30pm 39.8 38.9 17.8 27 14.5 N 19 24 10 13 1003.8 1002.9 0.0
18/08:00pm 40.4 40.1 18.3 27 14.7 N 17 26 9 14 1003.5 1002.6 0.0
18/07:30pm 40.7 40.3 18.0 26 15.1 N 17 28 9 15 1003.4 1002.5 0.0
18/07:00pm 41.1 39.5 18.4 27 15.1 NNW 24 35 13 19 1003.1 1002.2 0.0
18/06:30pm 41.7 40.5 18.3 26 15.6 N 22 30 12 16 1003.1 1002.2 0.0
18/06:00pm 40.7 39.7 18.0 26 15.1 N 20 37 11 20 1003.2 1002.3 0.0
18/05:30pm 41.9 41.4 19.0 26 15.5 N 20 37 11 20 1003.4 1002.5 0.0
18/05:00pm 41.2 39.2 18.4 26 15.2 NE 26 44 14 24 1003.8 1002.9 0.0
18/04:33pm 42.2 41.0 19.3 26 15.5 N 24 54 13 29 1004.1 1003.2 0.0
18/04:30pm 41.3 40.1 18.5 26 15.3 N 22 33 12 18 1004.1 1003.2 0.0
18/04:00pm 40.5 39.7 18.4 27 14.7 N 20 30 11 16 1004.7 1003.9 0.0
18/03:30pm 41.2 40.7 19.0 27 14.9 N 20 37 11 20 1005.0 1004.2 0.0
18/03:00pm 40.5 40.2 19.5 29 14.2 N 20 37 11 20 1005.5 1004.7 0.0
18/02:36pm 41.1 40.4 19.5 28 14.6 N 22 39 12 21 1005.8 1005.0 0.0
18/02:30pm 40.0 39.3 18.6 29 14.3 N 20 30 11 16 1006.0 1005.2 0.0
18/02:00pm 39.9 39.4 19.0 29 14.0 NNE 20 33 11 18 1006.3 1005.5 0.0
18/01:30pm 39.7 39.5 19.4 30 13.7 NNE 19 32 10 17 1006.6 1005.8 0.0
18/01:00pm 39.4 38.7 19.6 31 13.3 NNE 22 35 12 19 1007.0 1006.2 0.0
18/12:30pm 38.2 38.1 19.6 34 12.5 NNW 19 28 10 15 1007.2 1006.4 0.0
18/12:00pm 38.3 37.5 20.1 34 12.3 N 24 37 13 20 1007.6 1006.8 0.0
18/11:30am 37.3 37.1 19.7 35 11.8 N 20 30 11 16 1007.9 1007.1 0.0
18/11:00am 36.5 36.0 19.9 38 11.1 NNW 22 37 12 20 1008.1 1007.3 0.0
18/10:30am 36.4 36.4 20.2 38 10.9 N 20 35 11 19 1008.2 1007.4 0.0
18/10:00am 35.9 35.3 20.6 41 10.3 NNW 24 33 13 18 1008.4 1007.6 0.0
18/09:30am 34.8 33.9 20.7 43 9.5 N 26 35 14 19 1008.6 1007.8 0.0
18/09:00am 34.6 33.4 20.9 44 9.3 N 28 35 15 19 1008.4 1007.6 0.0
18/08:30am 34.2 33.6 20.6 45 9.2 N 24 33 13 18 1008.3 1007.5 0.0
18/08:00am 33.3 33.3 20.1 45 8.8 N 20 26 11 14 1008.1 1007.3 0.0
18/07:30am 32.5 33.0 20.1 48 8.3 N 17 20 9 11 1007.7 1006.9 0.0
18/07:00am 31.9 32.7 19.9 49 8.0 N 15 19 8 10 1007.4 1006.6 0.0
18/06:30am 32.0 33.4 19.6 47 8.2 NNE 11 17 6 9 1006.9 1006.1 0.0
18/06:00am 32.0 33.4 19.6 47 8.2 N 11 13 6 7 1006.4 1005.6 0.0
18/05:30am 32.4 33.7 19.3 46 8.6 N 11 15 6 8 1005.9 1005.1 0.0
18/05:00am 32.9 33.9 19.4 45 8.9 N 13 17 7 9 1005.6 1004.8 0.0
18/04:30am 33.2 33.4 19.3 44 9.2 N 17 20 9 11 1005.2 1004.4 0.0
18/04:00am 33.7 33.9 19.4 43 9.5 N 17 20 9 11 1005.1 1004.3 0.0
18/03:30am 34.0 33.6 19.3 42 9.7 N 20 24 11 13 1005.2 1004.4 0.0
18/03:00am 34.4 34.5 19.2 40 10.1 N 17 24 9 13 1005.3 1004.5 0.0
18/02:30am 34.7 34.4 19.1 39 10.3 N 19 22 10 12 1005.5 1004.7 0.0
18/02:00am 35.1 34.6 18.6 37 10.8 N 19 26 10 14 1005.6 1004.8 0.0
18/01:30am 35.6 34.5 18.7 37 11.2 N 22 30 12 16 1005.7 1004.9 0.0
18/01:00am 35.4 35.2 18.5 37 11.1 NNE 17 22 9 12 1005.8 1005.0 0.0
18/12:30am 35.7 36.0 18.7 36 11.2 NNE 15 19 8 10 1006.0 1005.2 0.0
18/12:00am 36.1 36.5 19.1 36 11.3 NNE 15 19 8 10 1006.1 1005.3 0.0
 
Date/Time
CDT
Temp
°C
App
Temp
°C
Dew
Point
°C
Rel
Hum
%
Delta-T
°C
Wind Press
QNH
hPa
Press
MSL
hPa
Rain since
9am
mm
Dir  Spd
km/h
Gust
km/h
Spd
kts
Gust
kts
17/11:30pm 36.7 36.8 19.2 36 11.7 NNE 17 22 9 12 1006.0 1005.2 0.0
17/11:00pm 37.0 36.6 19.4 35 11.8 NE 20 24 11 13 1005.9 1005.1 0.0
17/10:30pm 37.4 36.6 19.3 34 12.1 NE 22 26 12 14 1005.6 1004.8 0.0
17/10:00pm 37.7 37.0 19.6 34 12.1 NE 22 30 12 16 1005.3 1004.5 0.0
17/09:30pm 37.9 37.1 19.3 33 12.5 NNE 22 28 12 15 1004.8 1004.0 0.0
17/09:00pm 38.0 37.1 19.9 35 12.2 NNE 24 32 13 17 1004.5 1003.7 0.0
17/08:30pm 38.5 36.8 19.8 33 12.6 NNE 28 35 15 19 1004.1 1003.2 0.0
17/08:00pm 39.1 36.5 19.9 33 13.0 NNE 33 41 18 22 1003.7 1002.8 0.0
17/07:51pm 39.1 37.6 19.4 31 13.2 NNE 26 35 14 19 1003.6 1002.7 0.0
17/07:30pm 39.0 34.8 18.8 30 13.5 NNE 39 56 21 30 1003.4 1002.5 0.0
17/07:21pm 39.9 35.6 17.9 27 14.5 NNE 37 56 20 30 1003.2 1002.3 0.0
17/07:12pm 40.8 38.1 17.5 25 15.3 NE 28 52 15 28 1002.9 1002.0 0.0
17/07:00pm 41.0 40.1 17.7 26 15.4 NNE 19 30 10 16 1002.8 1001.9 0.0
17/06:30pm 42.4 41.2 17.6 24 16.5 NE 20 33 11 18 1002.6 1001.7 0.0
17/06:00pm 42.4 41.8 17.6 24 16.5 NNE 17 37 9 20 1002.7 1001.8 0.0
17/05:30pm 41.9 40.6 17.2 24 16.3 NNE 20 35 11 19 1003.0 1002.1 0.0
17/05:00pm 42.2 41.5 17.4 23 16.4 NE 17 28 9 15 1003.3 1002.4 0.0
17/04:30pm 41.8 40.4 17.1 24 16.3 NE 20 32 11 17 1003.7 1002.8 0.0
17/04:00pm 41.8 41.8 17.1 24 16.2 ENE 13 22 7 12 1003.7 1002.8 0.0
17/03:30pm 41.8 41.0 17.1 24 16.3 ENE 17 32 9 17 1004.2 1003.3 0.0
17/03:00pm 41.6 40.1 16.2 22 16.5 NE 19 33 10 18 1004.5 1003.7 0.0
17/02:30pm 40.1 38.7 16.9 25 15.2 ENE 20 35 11 19 1005.1 1004.3 0.0
17/02:00pm 41.4 39.5 16.7 23 16.1 NNE 22 39 12 21 1005.4 1004.6 0.0
17/01:30pm 41.0 40.1 17.7 26 15.4 NNE 19 32 10 17 1005.8 1005.0 0.0
17/01:00pm 39.8 38.3 17.8 27 14.5 NE 22 35 12 19 1006.2 1005.4 0.0
17/12:30pm 40.0 39.0 18.0 27 14.6 NNE 20 33 11 18 1006.5 1005.7 0.0
17/12:00pm 39.8 37.8 18.4 28 14.2 NE 26 39 14 21 1006.8 1006.0 0.0
17/11:30am 38.2 36.1 18.1 30 13.3 NNE 26 35 14 19 1007.0 1006.2 0.0
17/11:00am 38.0 35.5 18.9 32 12.7 NNE 30 37 16 20 1007.2 1006.4 0.0
17/10:30am 37.6 35.5 18.1 32 12.8 NNE 26 33 14 18 1007.1 1006.3 0.0
17/10:00am 36.5 34.2 15.6 29 13.2 NNE 22 30 12 16 1007.2 1006.4 0.0
17/09:30am 35.4 33.1 14.1 28 13.2 NNE 19 28 10 15 1007.4 1006.6 0.0
17/09:00am 33.8 29.3 8.4 21 14.4 NE 22 28 12 15 1007.2 1006.4 0.0
17/08:30am 31.8 25.9 -1.1 12 15.7 ENE 20 24 11 13 1007.0 1006.2 0.0
17/08:00am 29.6 25.2 -2.8 12 14.8 ESE 11 15 6 8 1006.6 1005.8 0.0
17/07:30am 26.6 21.9 -2.1 15 13.0 ESE 13 15 7 8 1006.4 1005.6 0.0
17/07:00am 25.8 21.7 -2.8 15 12.6 ESE 9 13 5 7 1006.1 1005.3 0.0
17/06:30am 25.3 21.6 -3.2 15 12.5 E 7 9 4 5 1005.8 1005.0 0.0
17/06:00am 26.1 21.2 -3.5 14 13.0 E 13 15 7 8 1005.6 1004.8 0.0
17/05:30am 26.1 21.7 -2.5 15 12.8 E 11 17 6 9 1005.4 1004.6 0.0
17/05:00am 25.6 22.0 -2.1 16 12.4 SE 7 9 4 5 1005.2 1004.4 0.0
17/04:30am 25.3 21.2 -3.2 15 12.5 ESE 9 13 5 7 1005.2 1004.4 0.0
17/04:00am 25.8 21.0 -2.8 15 12.6 ESE 13 15 7 8 1005.4 1004.6 0.0
17/03:30am 26.7 21.5 -3.0 14 13.2 ESE 15 15 8 8 1005.3 1004.5 0.0
17/03:00am 28.2 22.9 -3.9 12 14.2 ESE 15 17 8 9 1005.5 1004.7 0.0
17/02:30am 29.2 23.4 -4.3 11 14.9 E 17 20 9 11 1005.7 1004.9 0.0
17/02:00am 28.8 23.1 -3.4 12 14.4 ESE 17 17 9 9 1005.7 1004.9 0.0
17/01:30am 30.1 24.4 -3.6 11 15.3 E 17 20 9 11 1006.0 1005.2 0.0
17/01:00am 29.8 24.2 -2.6 12 14.8 ESE 17 20 9 11 1006.1 1005.3 0.0
17/12:30am 29.4 24.4 -0.9 14 14.3 ESE 15 19 8 10 1006.4 1005.6 0.0
17/12:00am 29.6 24.8 0.2 15 14.2 ESE 15 17 8 9 1006.6 1005.8 0.0
 
Date/Time
CDT
Temp
°C
App
Temp
°C
Dew
Point
°C
Rel
Hum
%
Delta-T
°C
Wind Press
QNH
hPa
Press
MSL
hPa
Rain since
9am
mm
Dir  Spd
km/h
Gust
km/h
Spd
kts
Gust
kts
16/11:30pm 30.9 26.3 1.3 15 14.7 E 15 17 8 9 1006.7 1005.9 0.0
16/11:00pm 32.4 27.6 0.5 13 15.7 E 15 15 8 8 1006.5 1005.7 0.0
16/10:30pm 34.2 28.4 -0.4 11 17.0 ESE 20 22 11 12 1006.3 1005.5 0.0
16/10:00pm 35.2 28.9 -1.0 10 17.7 ESE 22 28 12 15 1006.0 1005.2 0.0
16/09:30pm 35.0 30.0 -1.1 10 17.6 E 15 17 8 9 1005.9 1005.1 0.0
16/09:00pm 36.3 31.8 -0.2 10 18.3 E 13 15 7 8 1005.6 1004.8 0.0
16/08:30pm 38.3 32.7 -0.1 9 19.5 E 19 24 10 13 1005.4 1004.6 0.0
16/08:00pm 39.4 34.8 -0.9 8 20.3 E 13 20 7 11 1005.1 1004.3 0.0
16/07:30pm 40.0 35.5 -0.5 8 20.6 ESE 13 17 7 9 1005.0 1004.2 0.0

Other Formats:

Comma delimited format used in spreadsheet applications
http://www.bom.gov.au/fwo/IDS60801/IDS60801.94476.axf

JavaScript Object Notation format (JSON) in row-major order
http://www.bom.gov.au/fwo/IDS60801/IDS60801.94476.json